createdAt,value
2022-07-28T00:02:02.552Z,82.83
2022-07-28T00:04:32.270Z,82.43
2022-07-28T00:07:03.929Z,82.53
2022-07-28T00:09:33.362Z,83.19
2022-07-28T00:12:02.106Z,82.98
2022-07-28T00:14:30.942Z,81.99
2022-07-28T00:17:01.359Z,79.86
2022-07-28T00:19:31.367Z,78.09
2022-07-28T00:22:00.491Z,76.94
2022-07-28T00:24:29.735Z,77.16
2022-07-28T00:26:58.650Z,77.40
2022-07-28T00:29:49.950Z,77.84
2022-07-28T00:32:18.509Z,77.84
2022-07-28T00:34:47.529Z,77.37
2022-07-28T00:37:16.403Z,77.00
2022-07-28T00:39:45.762Z,76.83
2022-07-28T00:42:14.584Z,77.35
2022-07-28T00:44:44.875Z,76.90
2022-07-28T00:47:13.653Z,76.99
2022-07-28T00:49:46.180Z,77.95
2022-07-28T00:52:18.422Z,79.03
2022-07-28T00:54:49.385Z,78.39
2022-07-28T00:57:18.690Z,79.02
2022-07-28T00:59:48.081Z,77.59
2022-07-28T01:02:17.701Z,76.40
2022-07-28T01:04:49.058Z,75.76
2022-07-28T01:07:32.802Z,75.57
2022-07-28T01:10:14.698Z,75.67
2022-07-28T01:12:57.227Z,75.28
2022-07-28T01:15:33.654Z,74.37
2022-07-28T01:18:08.510Z,74.28
2022-07-28T01:20:45.590Z,74.16
2022-07-28T01:23:55.700Z,74.43
2022-07-28T01:26:53.117Z,75.12
2022-07-28T01:29:51.556Z,76.32
2022-07-28T01:32:27.147Z,77.83
2022-07-28T01:35:04.506Z,78.75
2022-07-28T01:37:42.948Z,77.94
2022-07-28T01:40:18.118Z,77.83
2022-07-28T01:42:52.889Z,78.07
2022-07-28T01:45:25.217Z,78.71
2022-07-28T01:48:00.855Z,79.05
2022-07-28T01:50:32.963Z,78.61
2022-07-28T01:53:03.205Z,79.11
2022-07-28T01:55:35.273Z,79.41
2022-07-28T01:58:06.466Z,79.76
2022-07-28T02:00:37.082Z,79.99
2022-07-28T02:03:12.122Z,79.20
2022-07-28T02:05:45.211Z,77.55
2022-07-28T02:08:17.718Z,76.41
2022-07-28T02:11:09.760Z,77.87
2022-07-28T02:13:41.242Z,78.43
2022-07-28T02:16:13.686Z,79.42
2022-07-28T02:18:48.334Z,79.64
2022-07-28T02:21:19.740Z,78.99
2022-07-28T02:23:51.989Z,78.90
2022-07-28T02:26:29.214Z,78.68
2022-07-28T02:29:02.924Z,78.85
2022-07-28T02:31:41.088Z,79.47
2022-07-28T02:34:17.475Z,79.88
2022-07-28T02:36:56.263Z,80.04
2022-07-28T02:39:55.269Z,81.23
2022-07-28T02:42:33.760Z,82.17
2022-07-28T02:45:08.517Z,82.27
2022-07-28T02:47:46.994Z,82.29
2022-07-28T02:50:23.524Z,81.02
2022-07-28T02:52:58.746Z,81.88
2022-07-28T02:55:29.079Z,83.36
2022-07-28T02:58:00.519Z,84.14
2022-07-28T03:00:35.042Z,81.40
2022-07-28T03:03:06.466Z,79.99
2022-07-28T03:05:39.260Z,79.11
2022-07-28T03:08:11.157Z,78.27
2022-07-28T03:10:42.047Z,78.29
2022-07-28T03:13:11.281Z,78.11
2022-07-28T03:15:41.682Z,78.15
2022-07-28T03:18:10.490Z,77.74
2022-07-28T03:20:40.875Z,77.93
2022-07-28T03:23:11.102Z,77.44
2022-07-28T03:25:48.282Z,78.55
2022-07-28T03:28:23.079Z,79.61
2022-07-28T03:31:00.553Z,81.19
2022-07-28T03:33:30.458Z,82.43
2022-07-28T03:36:10.710Z,82.48
2022-07-28T03:38:48.521Z,83.44
2022-07-28T03:41:21.250Z,85.12
2022-07-28T03:43:52.358Z,85.58
2022-07-28T03:46:22.249Z,84.69
2022-07-28T03:48:51.079Z,84.32
2022-07-28T03:51:22.961Z,86.96
2022-07-28T03:53:52.073Z,87.01
2022-07-28T03:56:21.160Z,86.94
2022-07-28T03:58:50.454Z,87.23
2022-07-28T04:01:19.679Z,87.10
2022-07-28T04:03:48.917Z,86.01
2022-07-28T04:06:18.570Z,85.29
2022-07-28T04:08:48.677Z,85.88
2022-07-28T04:11:18.337Z,85.39
2022-07-28T04:13:47.510Z,86.19
2022-07-28T04:16:16.685Z,83.80
2022-07-28T04:18:46.286Z,82.49
2022-07-28T04:21:15.393Z,81.33
2022-07-28T04:23:44.969Z,79.77
2022-07-28T04:26:15.381Z,79.06
2022-07-28T04:28:44.564Z,78.65
2022-07-28T04:31:13.768Z,78.71
2022-07-28T04:33:43.416Z,78.17
2022-07-28T04:36:12.490Z,78.14
2022-07-28T04:38:42.656Z,78.46
2022-07-28T04:41:11.550Z,77.40
2022-07-28T04:43:42.367Z,76.32
2022-07-28T04:46:14.989Z,76.62
2022-07-28T04:48:49.320Z,76.04
2022-07-28T04:51:18.515Z,76.01
2022-07-28T04:53:47.738Z,74.60
2022-07-28T04:56:16.673Z,75.26
2022-07-28T04:58:46.920Z,75.82
2022-07-28T05:01:18.222Z,76.48
2022-07-28T05:03:47.406Z,77.20
2022-07-28T05:06:21.241Z,77.85
2022-07-28T05:08:50.941Z,76.61
2022-07-28T05:11:20.767Z,76.96
2022-07-28T05:13:51.336Z,77.70
2022-07-28T05:16:21.067Z,77.38
2022-07-28T05:18:49.881Z,76.86
2022-07-28T05:21:22.255Z,77.45
2022-07-28T05:23:51.787Z,77.78
2022-07-28T05:26:24.041Z,77.80
2022-07-28T05:28:54.978Z,77.36
2022-07-28T05:31:24.433Z,77.23
2022-07-28T05:33:53.890Z,76.88
2022-07-28T05:36:23.066Z,76.66
2022-07-28T05:38:58.676Z,77.07
2022-07-28T05:41:40.263Z,76.20
2022-07-28T05:44:14.136Z,75.97
2022-07-28T05:46:45.725Z,74.87
2022-07-28T05:49:15.434Z,74.59
2022-07-28T05:51:44.371Z,75.24
2022-07-28T05:54:14.921Z,75.19
2022-07-28T05:56:49.844Z,75.62
2022-07-28T05:59:20.376Z,74.27
2022-07-28T06:01:49.542Z,74.90
2022-07-28T06:04:28.561Z,74.57
2022-07-28T06:06:58.635Z,75.40
2022-07-28T06:09:27.893Z,74.96
2022-07-28T06:11:56.698Z,75.56
2022-07-28T06:14:26.934Z,75.49
2022-07-28T06:16:55.904Z,75.41
2022-07-28T06:19:25.139Z,75.45
2022-07-28T06:21:55.417Z,74.80
2022-07-28T06:24:24.686Z,75.09
2022-07-28T06:26:54.409Z,75.28
2022-07-28T06:29:25.562Z,75.14
2022-07-28T06:31:54.590Z,74.45
2022-07-28T06:34:27.321Z,71.18
2022-07-28T06:36:56.110Z,71.43
2022-07-28T06:39:25.207Z,71.84
2022-07-28T06:41:54.349Z,71.02
2022-07-28T06:44:42.612Z,67.46
2022-07-28T06:47:21.524Z,65.11
2022-07-28T06:49:50.726Z,65.12
2022-07-28T06:52:21.174Z,62.72
2022-07-28T06:54:53.154Z,63.24
2022-07-28T06:57:33.196Z,62.47
2022-07-28T07:00:08.420Z,62.48
2022-07-28T07:02:42.682Z,61.18
2022-07-28T07:05:14.304Z,59.12
2022-07-28T07:07:46.539Z,58.76
2022-07-28T07:10:15.667Z,59.74
2022-07-28T07:12:45.200Z,59.58
2022-07-28T07:15:17.085Z,58.59
2022-07-28T07:17:47.490Z,58.04
2022-07-28T07:20:17.385Z,57.04
2022-07-28T07:22:49.899Z,57.67
2022-07-28T07:25:21.988Z,56.28
2022-07-28T07:27:51.080Z,57.32
2022-07-28T07:30:20.127Z,57.31
2022-07-28T07:32:53.651Z,57.45
2022-07-28T07:35:22.412Z,57.39
2022-07-28T07:37:52.368Z,57.24
2022-07-28T07:40:21.797Z,58.17
2022-07-28T07:42:50.736Z,57.60
2022-07-28T07:45:21.670Z,57.24
2022-07-28T07:47:53.851Z,58.09
2022-07-28T07:50:23.103Z,58.66
2022-07-28T07:52:51.912Z,58.48
2022-07-28T07:55:20.880Z,58.35
2022-07-28T07:57:50.181Z,59.99
2022-07-28T08:00:29.018Z,60.83
2022-07-28T08:03:01.283Z,61.84
2022-07-28T08:05:35.394Z,62.02
2022-07-28T08:08:06.818Z,61.23
2022-07-28T08:10:38.127Z,60.91
2022-07-28T08:13:08.496Z,62.12
2022-07-28T08:15:40.740Z,62.99
2022-07-28T08:18:11.004Z,62.42
2022-07-28T08:20:41.618Z,62.84
2022-07-28T08:23:12.384Z,61.49
2022-07-28T08:25:41.828Z,60.21
2022-07-28T08:28:11.060Z,61.25
2022-07-28T08:30:41.104Z,61.30
2022-07-28T08:33:11.538Z,60.18
2022-07-28T08:35:41.801Z,59.01
2022-07-28T08:38:12.953Z,58.44
2022-07-28T08:40:50.336Z,56.25
2022-07-28T08:43:35.073Z,56.15
2022-07-28T08:46:07.041Z,58.91
2022-07-28T08:48:39.619Z,59.76
2022-07-28T08:51:11.323Z,60.85
2022-07-28T08:53:42.876Z,60.74
2022-07-28T08:56:15.736Z,60.27
2022-07-28T08:58:45.871Z,61.41
2022-07-28T09:01:14.834Z,61.62
2022-07-28T09:03:46.779Z,60.53
2022-07-28T09:06:19.360Z,61.02
2022-07-28T09:08:50.088Z,59.71
2022-07-28T09:11:21.205Z,59.43
2022-07-28T09:13:53.904Z,60.00
2022-07-28T09:16:23.091Z,59.54
2022-07-28T09:18:54.106Z,59.01
2022-07-28T09:21:23.401Z,59.08
2022-07-28T09:23:53.518Z,59.01
2022-07-28T09:26:22.969Z,58.42
2022-07-28T09:28:55.245Z,59.68
2022-07-28T09:31:26.994Z,60.01
2022-07-28T09:34:03.545Z,60.14
2022-07-28T09:36:42.722Z,62.25
2022-07-28T09:39:11.952Z,61.64
2022-07-28T09:41:51.863Z,62.99
2022-07-28T09:44:26.553Z,61.40
2022-07-28T09:46:57.277Z,62.03
2022-07-28T09:49:44.487Z,61.66
2022-07-28T09:52:14.055Z,61.35
2022-07-28T09:55:02.206Z,59.15
2022-07-28T09:57:32.453Z,59.96
2022-07-28T10:00:09.513Z,59.47
2022-07-28T10:02:41.557Z,59.81
2022-07-28T10:05:18.089Z,60.22
2022-07-28T10:07:51.950Z,60.44
2022-07-28T10:10:23.124Z,59.61
2022-07-28T10:12:52.298Z,60.15
2022-07-28T10:15:45.478Z,58.96
2022-07-28T10:18:22.441Z,58.74
2022-07-28T10:20:53.042Z,57.89
2022-07-28T10:23:23.521Z,59.18
2022-07-28T10:25:56.720Z,59.88
2022-07-28T10:28:26.657Z,60.20
2022-07-28T10:31:03.233Z,60.10
2022-07-28T10:33:34.062Z,60.19
2022-07-28T10:36:07.598Z,60.64
2022-07-28T10:38:38.546Z,61.99
2022-07-28T10:41:11.990Z,60.75
2022-07-28T10:43:45.468Z,60.62
2022-07-28T10:46:17.229Z,59.71
2022-07-28T10:48:46.981Z,59.35
2022-07-28T10:51:18.477Z,58.90
2022-07-28T10:53:55.127Z,59.45
2022-07-28T10:56:39.963Z,57.28
2022-07-28T10:59:30.642Z,58.38
2022-07-28T11:01:59.914Z,58.94
2022-07-28T11:04:55.620Z,59.31
2022-07-28T11:07:40.858Z,59.73
2022-07-28T11:10:20.020Z,59.57
2022-07-28T11:12:50.801Z,60.08
2022-07-28T11:15:35.711Z,60.58
2022-07-28T11:18:08.675Z,60.19
2022-07-28T11:21:16.369Z,58.60
2022-07-28T11:23:56.629Z,56.81
2022-07-28T11:26:41.999Z,55.86
2022-07-28T11:29:21.956Z,55.28
2022-07-28T11:32:07.617Z,56.44
2022-07-28T11:35:11.606Z,57.61
2022-07-28T11:38:13.254Z,55.31
2022-07-28T11:40:46.008Z,54.86
2022-07-28T11:43:40.182Z,53.64
2022-07-28T11:46:35.361Z,54.59
2022-07-28T11:49:25.239Z,53.45
2022-07-28T11:52:24.477Z,53.12
2022-07-28T11:54:57.650Z,51.17
2022-07-28T11:57:31.207Z,49.77
2022-07-28T12:00:03.343Z,50.17
2022-07-28T12:02:34.736Z,50.22
2022-07-28T12:05:12.016Z,49.28
2022-07-28T12:07:48.848Z,48.22
2022-07-28T12:13:30.492Z,47.21
2022-07-28T12:15:59.673Z,46.55
2022-07-28T12:18:31.917Z,45.71
2022-07-28T12:21:05.205Z,44.90
2022-07-28T12:23:45.620Z,45.05
2022-07-28T12:26:34.473Z,43.33
2022-07-28T12:29:14.598Z,43.26
2022-07-28T12:31:55.977Z,45.35
2022-07-28T12:34:28.780Z,47.01
2022-07-28T12:37:02.378Z,48.53
2022-07-28T12:39:34.379Z,49.68
2022-07-28T12:42:05.467Z,50.43
2022-07-28T12:44:41.642Z,48.60
2022-07-28T12:47:13.405Z,45.65
2022-07-28T12:49:44.873Z,43.97
2022-07-28T12:52:22.311Z,43.54
2022-07-28T12:54:56.180Z,42.33
2022-07-28T12:57:48.305Z,44.78
2022-07-28T13:00:24.434Z,41.64
2022-07-28T13:02:57.411Z,41.34
2022-07-28T13:05:53.536Z,41.42
2022-07-28T13:08:24.114Z,41.54
2022-07-28T13:10:57.556Z,40.50
2022-07-28T13:13:28.909Z,39.11
2022-07-28T13:16:17.647Z,39.51
2022-07-28T13:18:51.239Z,38.54
2022-07-28T13:21:38.197Z,38.04
2022-07-28T13:24:08.313Z,38.17
2022-07-28T13:26:38.144Z,39.84
2022-07-28T13:29:14.955Z,38.22
2022-07-28T13:31:45.794Z,37.00
2022-07-28T13:34:14.916Z,36.39
2022-07-28T13:36:47.398Z,37.18
2022-07-28T13:39:16.373Z,37.25
2022-07-28T13:41:57.357Z,39.45
2022-07-28T13:44:28.838Z,38.83
2022-07-28T13:47:03.255Z,36.95
2022-07-28T13:49:37.743Z,35.82
2022-07-28T13:52:12.870Z,35.69
2022-07-28T13:54:45.467Z,34.67
2022-07-28T13:57:14.953Z,34.85
2022-07-28T13:59:45.300Z,35.49
2022-07-28T14:02:16.404Z,34.72
2022-07-28T14:04:50.393Z,35.89
2022-07-28T14:07:20.682Z,38.82
2022-07-28T14:09:56.568Z,37.70
2022-07-28T14:12:25.486Z,36.25
2022-07-28T14:14:54.780Z,36.77
2022-07-28T14:17:44.397Z,35.32
2022-07-28T14:20:16.284Z,36.63
2022-07-28T14:22:47.326Z,38.47
2022-07-28T14:25:19.720Z,38.09
2022-07-28T14:27:51.586Z,37.51
2022-07-28T14:30:22.181Z,37.38
2022-07-28T14:32:53.046Z,37.35
2022-07-28T14:35:23.034Z,36.73
2022-07-28T14:38:35.571Z,36.75
2022-07-28T14:40:43.059Z,36.99
2022-07-28T14:43:12.544Z,37.23
2022-07-28T14:45:51.261Z,35.42
2022-07-28T14:48:33.723Z,36.61
2022-07-28T14:51:02.630Z,37.98
2022-07-28T14:53:31.566Z,38.33
2022-07-28T14:56:04.216Z,38.86
2022-07-28T14:58:37.746Z,37.80
2022-07-28T15:01:06.618Z,35.99
2022-07-28T15:03:41.611Z,37.21
2022-07-28T15:06:12.713Z,35.76
2022-07-28T15:08:44.972Z,36.53
2022-07-28T15:11:14.013Z,37.93
2022-07-28T15:13:43.011Z,36.92
2022-07-28T15:16:11.914Z,35.21
2022-07-28T15:18:42.061Z,35.49
2022-07-28T15:21:12.847Z,34.82
2022-07-28T15:23:42.547Z,35.50
2022-07-28T15:26:12.390Z,34.92
2022-07-28T15:28:41.286Z,35.55
2022-07-28T15:31:11.425Z,35.06
2022-07-28T15:33:48.237Z,34.63
2022-07-28T15:36:19.854Z,34.95
2022-07-28T15:38:50.858Z,35.24
2022-07-28T15:41:20.542Z,35.58
2022-07-28T15:43:49.355Z,36.10
2022-07-28T15:46:18.204Z,35.32
2022-07-28T15:48:48.685Z,34.80
2022-07-28T15:51:22.663Z,34.93
2022-07-28T15:54:04.459Z,34.70
2022-07-28T15:56:38.822Z,34.65
2022-07-28T15:59:09.497Z,34.09
2022-07-28T16:01:45.143Z,34.67
2022-07-28T16:04:18.267Z,35.75
2022-07-28T16:07:04.996Z,35.24
2022-07-28T16:09:45.819Z,36.92
2022-07-28T16:12:16.153Z,36.44
2022-07-28T16:14:45.647Z,35.54
2022-07-28T16:17:15.410Z,34.92
2022-07-28T16:19:49.575Z,35.64
2022-07-28T16:22:22.423Z,36.72
2022-07-28T16:24:55.936Z,36.84
2022-07-28T16:27:25.347Z,37.21
2022-07-28T16:29:54.605Z,37.11
2022-07-28T16:32:24.768Z,35.94
2022-07-28T16:34:55.983Z,35.44
2022-07-28T16:37:25.754Z,35.27
2022-07-28T16:39:59.940Z,34.25
2022-07-28T16:42:29.439Z,34.14
2022-07-28T16:45:00.082Z,37.54
2022-07-28T16:47:28.965Z,37.21
2022-07-28T16:50:00.159Z,37.65
2022-07-28T16:52:29.496Z,36.20
2022-07-28T16:54:58.796Z,34.64
2022-07-28T16:57:30.990Z,34.49
2022-07-28T17:00:02.182Z,35.79
2022-07-28T17:02:34.072Z,37.81
2022-07-28T17:05:05.145Z,38.49
2022-07-28T17:07:34.327Z,38.83
2022-07-28T17:10:03.662Z,40.18
2022-07-28T17:12:38.409Z,39.09
2022-07-28T17:15:22.435Z,38.10
2022-07-28T17:17:52.775Z,36.49
2022-07-28T17:20:25.188Z,36.97
2022-07-28T17:22:54.627Z,37.89
2022-07-28T17:28:12.626Z,38.85
2022-07-28T17:30:41.850Z,38.67
2022-07-28T17:33:10.973Z,37.95
2022-07-28T17:35:42.501Z,37.60
2022-07-28T17:38:13.234Z,37.81
2022-07-28T17:40:43.225Z,36.90
2022-07-28T17:43:15.191Z,37.25
2022-07-28T17:45:47.436Z,39.12
2022-07-28T17:48:16.837Z,39.54
2022-07-28T17:50:49.310Z,40.40
2022-07-28T17:53:23.113Z,40.97
2022-07-28T17:55:57.520Z,41.67
2022-07-28T17:58:35.142Z,42.93
2022-07-28T18:01:10.923Z,43.34
2022-07-28T18:03:56.569Z,45.17
2022-07-28T18:06:30.941Z,46.68
2022-07-28T18:09:05.982Z,48.97
2022-07-28T18:11:56.546Z,51.18
2022-07-28T18:14:30.069Z,51.08
2022-07-28T18:17:00.522Z,51.65
2022-07-28T18:19:30.943Z,53.71
2022-07-28T18:22:06.075Z,55.27
2022-07-28T18:24:35.308Z,57.00
2022-07-28T18:27:05.084Z,59.72
2022-07-28T18:29:38.529Z,62.02
2022-07-28T18:32:10.098Z,64.67
2022-07-28T18:34:40.629Z,66.48
2022-07-28T18:37:11.153Z,67.84
2022-07-28T18:39:41.558Z,68.92
2022-07-28T18:42:10.966Z,71.65
2022-07-28T18:44:41.625Z,73.04
2022-07-28T18:47:10.646Z,74.12
2022-07-28T18:49:39.648Z,75.55
2022-07-28T18:52:10.217Z,77.47
2022-07-28T18:54:39.718Z,78.93
2022-07-28T18:57:08.879Z,81.05
2022-07-28T18:59:43.339Z,82.33
2022-07-28T19:02:14.684Z,83.25
2022-07-28T19:04:44.077Z,85.29
2022-07-28T19:07:16.284Z,86.87
2022-07-28T19:09:45.673Z,88.29
2022-07-28T19:12:15.282Z,89.50
2022-07-28T19:14:44.273Z,90.73
2022-07-28T19:17:13.408Z,91.97
2022-07-28T19:19:42.240Z,93.83
2022-07-28T19:22:11.154Z,95.32
2022-07-28T19:24:41.910Z,97.18
2022-07-28T19:27:11.975Z,98.74
2022-07-28T19:29:40.901Z,100.00
2022-07-28T19:32:10.681Z,100.00
2022-07-28T19:34:39.735Z,100.00
2022-07-28T19:37:08.631Z,100.00
2022-07-28T19:39:48.323Z,100.00
2022-07-28T19:42:17.444Z,100.00
2022-07-28T19:44:46.936Z,100.00
2022-07-28T19:47:15.959Z,100.00
2022-07-28T19:49:45.100Z,100.00
2022-07-28T19:52:14.171Z,100.00
2022-07-28T19:54:43.300Z,100.00
2022-07-28T19:57:21.644Z,100.00
2022-07-28T19:59:50.466Z,100.00
2022-07-28T20:02:19.646Z,100.00
2022-07-28T20:04:48.853Z,100.00
2022-07-28T20:07:19.823Z,100.00
2022-07-28T20:09:51.378Z,100.00
2022-07-28T20:12:22.596Z,100.00
2022-07-28T20:14:55.894Z,100.00
2022-07-28T20:17:38.050Z,100.00
2022-07-28T20:20:16.213Z,100.00
2022-07-28T20:22:45.809Z,100.00
2022-07-28T20:25:16.176Z,100.00
2022-07-28T20:27:50.445Z,100.00
2022-07-28T20:30:19.846Z,100.00
2022-07-28T20:32:48.718Z,100.00
2022-07-28T20:35:19.025Z,100.00
2022-07-28T20:37:47.831Z,100.00
2022-07-28T20:40:18.330Z,100.00
2022-07-28T20:42:52.933Z,100.00
2022-07-28T20:45:23.261Z,100.00
2022-07-28T20:47:52.480Z,100.00
2022-07-28T20:50:22.200Z,100.00
2022-07-28T20:52:50.865Z,100.00
2022-07-28T20:55:26.574Z,100.00
2022-07-28T20:57:57.772Z,100.00
2022-07-28T21:00:27.297Z,100.00
2022-07-28T21:02:58.425Z,100.00
2022-07-28T21:05:35.967Z,100.00
2022-07-28T21:08:09.293Z,100.00
2022-07-28T21:10:39.653Z,100.00
2022-07-28T21:13:10.381Z,100.00
2022-07-28T21:15:39.825Z,100.00
2022-07-28T21:18:09.838Z,100.00
2022-07-28T21:20:39.102Z,100.00
2022-07-28T21:23:08.106Z,100.00
2022-07-28T21:25:37.196Z,100.00
2022-07-28T21:28:29.785Z,100.00
2022-07-28T21:31:03.004Z,100.00
2022-07-28T21:33:32.189Z,100.00
2022-07-28T21:36:01.162Z,100.00
2022-07-28T21:38:29.930Z,100.00
2022-07-28T21:40:59.109Z,100.00
2022-07-28T21:43:30.272Z,100.00
2022-07-28T21:46:00.265Z,100.00
2022-07-28T21:48:29.408Z,100.00
2022-07-28T21:50:59.896Z,100.00
2022-07-28T21:53:28.917Z,100.00
2022-07-28T21:55:58.531Z,100.00
2022-07-28T21:58:29.313Z,100.00
2022-07-28T22:01:02.923Z,100.00
2022-07-28T22:03:36.741Z,100.00
2022-07-28T22:06:06.591Z,100.00
2022-07-28T22:08:36.252Z,100.00
2022-07-28T22:11:05.578Z,100.00
2022-07-28T22:13:36.105Z,100.00
2022-07-28T22:16:06.767Z,100.00
2022-07-28T22:18:35.901Z,100.00
2022-07-28T22:21:05.053Z,100.00
2022-07-28T22:23:34.940Z,100.00
2022-07-28T22:26:06.279Z,100.00
2022-07-28T22:28:37.089Z,100.00
2022-07-28T22:31:09.500Z,100.00
2022-07-28T22:33:39.502Z,100.00
2022-07-28T22:36:09.628Z,100.00
2022-07-28T22:38:39.283Z,100.00
2022-07-28T22:41:11.034Z,100.00
2022-07-28T22:43:41.539Z,100.00
2022-07-28T22:46:12.001Z,100.00
2022-07-28T22:48:41.437Z,100.00
2022-07-28T22:51:12.388Z,100.00
2022-07-28T22:53:42.307Z,100.00
2022-07-28T22:56:12.450Z,100.00
2022-07-28T22:58:42.957Z,100.00
2022-07-28T23:01:15.798Z,100.00
2022-07-28T23:03:46.308Z,100.00
2022-07-28T23:06:16.453Z,100.00
2022-07-28T23:08:45.872Z,100.00
2022-07-28T23:11:15.112Z,100.00
2022-07-28T23:13:48.272Z,100.00
2022-07-28T23:16:17.545Z,100.00
2022-07-28T23:18:49.912Z,100.00
2022-07-28T23:21:19.308Z,100.00
2022-07-28T23:23:48.488Z,100.00
2022-07-28T23:26:18.233Z,100.00
2022-07-28T23:28:48.845Z,100.00
2022-07-28T23:31:18.111Z,100.00
2022-07-28T23:33:56.275Z,100.00
2022-07-28T23:36:29.131Z,100.00
2022-07-28T23:39:00.715Z,100.00
2022-07-28T23:41:31.225Z,100.00
2022-07-28T23:44:02.335Z,100.00
2022-07-28T23:46:31.566Z,100.00
2022-07-28T23:49:03.623Z,100.00
2022-07-28T23:51:47.614Z,100.00
2022-07-28T23:54:19.579Z,100.00
2022-07-28T23:56:52.504Z,100.00
2022-07-28T23:59:22.990Z,100.00
